Monument, Oregon
Current Conditions -  °F | °C
As of 6:15 PM on Monday 22 Dec 2014 (Local Time) from KGCD Reporting Station
Broken Clouds Broken Clouds  
Wind Chill: 39°   Ceiling: 10000
Heat Index: 39°   Visibility: 10mi
Dew Point: 22°   Wind: 0mph
Humidity: 52%   Direction: NA
Pressure: 30.32"   Gusts: NA
Location:  44.82°N, 119.42°W
Report Text: KGCD 230215Z AUTO 00000KT 10SM BKN100 04/M05 A3032 RMK AO2 T00391053
Loading
Personal Weather Stations






























Interactive Weather Map New forecast layout! Learn more

10-Day Weather Forecast

Advertisements
Track Severe Weather on mobile